Terminal Aerodrome Forecast
Issued by NWS Twin Cities, MN

Home | Current Version | Previous Version | Text Only | Print | Product List | Glossary On
Versions: 1 2 3 4 5 6 7 8 9 10 11 12 13 14 15 16 17 18 19 20 21 22 23 24 25 26 27 28 29 30
775
FTUS43 KMPX 221807 AAA
TAFMSP
TAF AMD
KMSP 221807Z 2218/2324 VRB06KT P6SM SCT070 BKN120
     FM222300 31007KT P6SM SCT015 BKN045
     FM230100 32008KT P6SM BKN030
     FM230400 32009KT P6SM SCT008 BKN015 OVC020
     FM231500 01007KT P6SM OVC025
     FM232000 05010KT P6SM OVC035
     FM232300 05012KT 6SM -RASN OVC025=

USA.gov is the U.S. government's official web portal to all federal, state and local government web resources and services.